sensor_id;sensor_type;location;lat;lon;timestamp;temperature;humidity
27224;DHT22;14965;50.660;13.226;2023-02-28T00:01:20;-3.00;99.90
27224;DHT22;14965;50.660;13.226;2023-02-28T00:03:50;-3.00;99.90
27224;DHT22;14965;50.660;13.226;2023-02-28T00:06:20;-3.10;99.90
27224;DHT22;14965;50.660;13.226;2023-02-28T00:08:47;-3.10;99.90
27224;DHT22;14965;50.660;13.226;2023-02-28T00:11:17;-3.10;99.90
27224;DHT22;14965;50.660;13.226;2023-02-28T00:13:47;-3.20;99.90
27224;DHT22;14965;50.660;13.226;2023-02-28T00:16:21;-3.20;99.90
27224;DHT22;14965;50.660;13.226;2023-02-28T00:18:52;-3.10;99.90
27224;DHT22;14965;50.660;13.226;2023-02-28T00:21:21;-3.10;99.90
27224;DHT22;14965;50.660;13.226;2023-02-28T00:23:49;-3.10;99.90
27224;DHT22;14965;50.660;13.226;2023-02-28T00:26:21;-3.20;99.90
27224;DHT22;14965;50.660;13.226;2023-02-28T00:28:54;-3.30;99.90
27224;DHT22;14965;50.660;13.226;2023-02-28T00:31:26;-3.40;99.90
27224;DHT22;14965;50.660;13.226;2023-02-28T00:33:58;-3.30;99.90
27224;DHT22;14965;50.660;13.226;2023-02-28T00:36:30;-3.20;99.90
27224;DHT22;14965;50.660;13.226;2023-02-28T00:39:03;-3.20;99.90
27224;DHT22;14965;50.660;13.226;2023-02-28T00:41:42;-3.10;99.90
27224;DHT22;14965;50.660;13.226;2023-02-28T00:44:15;-3.10;99.90
27224;DHT22;14965;50.660;13.226;2023-02-28T00:46:49;-3.10;99.90
27224;DHT22;14965;50.660;13.226;2023-02-28T00:49:21;-3.10;99.90
27224;DHT22;14965;50.660;13.226;2023-02-28T00:51:52;-3.10;99.90
27224;DHT22;14965;50.660;13.226;2023-02-28T00:54:23;-3.20;99.90
27224;DHT22;14965;50.660;13.226;2023-02-28T00:56:55;-3.20;99.90
27224;DHT22;14965;50.660;13.226;2023-02-28T00:59:23;-3.20;99.90
27224;DHT22;14965;50.660;13.226;2023-02-28T01:01:59;-3.30;99.90
27224;DHT22;14965;50.660;13.226;2023-02-28T01:04:28;-3.40;99.90
27224;DHT22;14965;50.660;13.226;2023-02-28T01:07:01;-3.50;99.90
27224;DHT22;14965;50.660;13.226;2023-02-28T01:09:34;-3.50;99.90
27224;DHT22;14965;50.660;13.226;2023-02-28T01:12:09;-3.40;99.90
27224;DHT22;14965;50.660;13.226;2023-02-28T01:14:37;-3.30;99.90
27224;DHT22;14965;50.660;13.226;2023-02-28T01:17:06;-3.30;99.90
27224;DHT22;14965;50.660;13.226;2023-02-28T01:19:35;-3.30;99.90
27224;DHT22;14965;50.660;13.226;2023-02-28T01:22:03;-3.30;99.90
27224;DHT22;14965;50.660;13.226;2023-02-28T01:24:32;-3.10;99.90
27224;DHT22;14965;50.660;13.226;2023-02-28T01:27:00;-3.20;99.90
27224;DHT22;14965;50.660;13.226;2023-02-28T01:29:29;-3.20;99.90
27224;DHT22;14965;50.660;13.226;2023-02-28T01:31:57;-3.20;99.90
27224;DHT22;14965;50.660;13.226;2023-02-28T01:34:26;-3.10;99.90
27224;DHT22;14965;50.660;13.226;2023-02-28T01:36:55;-3.00;99.90
27224;DHT22;14965;50.660;13.226;2023-02-28T01:39:22;-3.10;99.90
27224;DHT22;14965;50.660;13.226;2023-02-28T01:41:49;-3.20;99.90
27224;DHT22;14965;50.660;13.226;2023-02-28T01:47:50;-3.20;99.90
27224;DHT22;14965;50.660;13.226;2023-02-28T01:50:25;-3.30;99.90
27224;DHT22;14965;50.660;13.226;2023-02-28T01:53:02;-3.30;99.90
27224;DHT22;14965;50.660;13.226;2023-02-28T01:55:35;-3.30;99.90
27224;DHT22;14965;50.660;13.226;2023-02-28T01:58:06;-3.40;99.90
27224;DHT22;14965;50.660;13.226;2023-02-28T02:00:40;-3.20;99.90
27224;DHT22;14965;50.660;13.226;2023-02-28T02:03:14;-3.20;99.90
27224;DHT22;14965;50.660;13.226;2023-02-28T02:05:46;-3.20;99.90
27224;DHT22;14965;50.660;13.226;2023-02-28T02:08:23;-3.10;99.90
27224;DHT22;14965;50.660;13.226;2023-02-28T02:11:00;-3.10;99.90
27224;DHT22;14965;50.660;13.226;2023-02-28T02:14:07;-3.10;99.90
27224;DHT22;14965;50.660;13.226;2023-02-28T02:17:05;-3.20;99.90
27224;DHT22;14965;50.660;13.226;2023-02-28T02:20:16;-3.30;99.90
27224;DHT22;14965;50.660;13.226;2023-02-28T02:23:51;-3.30;99.90
27224;DHT22;14965;50.660;13.226;2023-02-28T02:27:05;-3.40;99.90
27224;DHT22;14965;50.660;13.226;2023-02-28T02:30:06;-3.40;99.90
27224;DHT22;14965;50.660;13.226;2023-02-28T02:33:16;-3.30;99.90
27224;DHT22;14965;50.660;13.226;2023-02-28T02:36:23;-3.30;99.90
27224;DHT22;14965;50.660;13.226;2023-02-28T02:39:04;-3.30;99.90
27224;DHT22;14965;50.660;13.226;2023-02-28T02:41:47;-3.30;99.90
27224;DHT22;14965;50.660;13.226;2023-02-28T02:44:31;-3.30;99.90
27224;DHT22;14965;50.660;13.226;2023-02-28T02:47:11;-3.30;99.90
27224;DHT22;14965;50.660;13.226;2023-02-28T02:49:46;-3.20;99.90
27224;DHT22;14965;50.660;13.226;2023-02-28T02:52:34;-3.20;99.90
27224;DHT22;14965;50.660;13.226;2023-02-28T02:55:14;-3.20;99.90
27224;DHT22;14965;50.660;13.226;2023-02-28T02:57:51;-3.30;99.90
27224;DHT22;14965;50.660;13.226;2023-02-28T03:00:30;-3.30;99.90
27224;DHT22;14965;50.660;13.226;2023-02-28T03:03:04;-3.40;99.90
27224;DHT22;14965;50.660;13.226;2023-02-28T03:05:41;-3.30;99.90
27224;DHT22;14965;50.660;13.226;2023-02-28T03:08:14;-3.30;99.90
27224;DHT22;14965;50.660;13.226;2023-02-28T03:10:43;-3.30;99.90
27224;DHT22;14965;50.660;13.226;2023-02-28T03:16:38;-3.40;99.90
27224;DHT22;14965;50.660;13.226;2023-02-28T03:19:34;-3.40;99.90
27224;DHT22;14965;50.660;13.226;2023-02-28T03:22:39;-3.50;99.90
27224;DHT22;14965;50.660;13.226;2023-02-28T03:25:20;-3.50;99.90
27224;DHT22;14965;50.660;13.226;2023-02-28T03:28:05;-3.60;99.90
27224;DHT22;14965;50.660;13.226;2023-02-28T03:30:43;-3.60;99.90
27224;DHT22;14965;50.660;13.226;2023-02-28T03:33:18;-3.60;99.90
27224;DHT22;14965;50.660;13.226;2023-02-28T03:35:50;-3.60;99.90
27224;DHT22;14965;50.660;13.226;2023-02-28T03:38:23;-3.70;99.90
27224;DHT22;14965;50.660;13.226;2023-02-28T03:41:07;-3.70;99.90
27224;DHT22;14965;50.660;13.226;2023-02-28T03:43:43;-3.70;99.90
27224;DHT22;14965;50.660;13.226;2023-02-28T03:46:16;-3.80;99.90
27224;DHT22;14965;50.660;13.226;2023-02-28T03:48:51;-3.80;99.90
27224;DHT22;14965;50.660;13.226;2023-02-28T03:51:23;-3.80;99.90
27224;DHT22;14965;50.660;13.226;2023-02-28T03:53:54;-3.80;99.90
27224;DHT22;14965;50.660;13.226;2023-02-28T03:56:31;-3.90;99.90
27224;DHT22;14965;50.660;13.226;2023-02-28T03:59:04;-3.80;99.90
27224;DHT22;14965;50.660;13.226;2023-02-28T04:01:40;-3.90;99.90
27224;DHT22;14965;50.660;13.226;2023-02-28T04:04:10;-3.90;99.90
27224;DHT22;14965;50.660;13.226;2023-02-28T04:06:39;-4.00;99.90
27224;DHT22;14965;50.660;13.226;2023-02-28T04:09:08;-4.10;99.90
27224;DHT22;14965;50.660;13.226;2023-02-28T04:11:40;-4.10;99.90
27224;DHT22;14965;50.660;13.226;2023-02-28T04:14:09;-4.30;99.90
27224;DHT22;14965;50.660;13.226;2023-02-28T04:16:37;-4.30;99.90
27224;DHT22;14965;50.660;13.226;2023-02-28T04:19:06;-4.50;99.90
27224;DHT22;14965;50.660;13.226;2023-02-28T04:21:35;-4.60;99.90
27224;DHT22;14965;50.660;13.226;2023-02-28T04:24:05;-4.60;99.90
27224;DHT22;14965;50.660;13.226;2023-02-28T04:26:35;-4.70;99.90
27224;DHT22;14965;50.660;13.226;2023-02-28T04:29:05;-4.80;99.90
27224;DHT22;14965;50.660;13.226;2023-02-28T04:31:32;-4.80;99.90
27224;DHT22;14965;50.660;13.226;2023-02-28T04:33:59;-4.70;99.90
27224;DHT22;14965;50.660;13.226;2023-02-28T04:36:27;-4.80;99.90
27224;DHT22;14965;50.660;13.226;2023-02-28T04:38:54;-4.80;99.90
27224;DHT22;14965;50.660;13.226;2023-02-28T04:41:22;-4.90;99.90
27224;DHT22;14965;50.660;13.226;2023-02-28T04:43:53;-5.00;99.90
27224;DHT22;14965;50.660;13.226;2023-02-28T04:46:20;-5.00;99.90
27224;DHT22;14965;50.660;13.226;2023-02-28T04:48:48;-5.10;99.90
27224;DHT22;14965;50.660;13.226;2023-02-28T04:51:17;-5.30;99.90
27224;DHT22;14965;50.660;13.226;2023-02-28T04:53:45;-5.30;99.90
27224;DHT22;14965;50.660;13.226;2023-02-28T04:56:15;-5.30;99.90
27224;DHT22;14965;50.660;13.226;2023-02-28T04:58:44;-5.50;99.90
27224;DHT22;14965;50.660;13.226;2023-02-28T05:01:22;-5.60;99.90
27224;DHT22;14965;50.660;13.226;2023-02-28T05:03:51;-5.70;99.90
27224;DHT22;14965;50.660;13.226;2023-02-28T05:06:19;-5.70;99.90
27224;DHT22;14965;50.660;13.226;2023-02-28T05:08:48;-5.80;99.90
27224;DHT22;14965;50.660;13.226;2023-02-28T05:11:19;-5.80;99.90
27224;DHT22;14965;50.660;13.226;2023-02-28T05:13:48;-5.90;99.90
27224;DHT22;14965;50.660;13.226;2023-02-28T05:16:18;-5.90;99.90
27224;DHT22;14965;50.660;13.226;2023-02-28T05:18:46;-5.90;99.90
27224;DHT22;14965;50.660;13.226;2023-02-28T05:21:25;-5.80;99.90
27224;DHT22;14965;50.660;13.226;2023-02-28T05:23:56;-5.90;99.90
27224;DHT22;14965;50.660;13.226;2023-02-28T05:26:25;-6.00;99.90
27224;DHT22;14965;50.660;13.226;2023-02-28T05:28:54;-6.10;99.90
27224;DHT22;14965;50.660;13.226;2023-02-28T05:31:23;-6.10;99.90
27224;DHT22;14965;50.660;13.226;2023-02-28T05:33:51;-6.10;99.90
27224;DHT22;14965;50.660;13.226;2023-02-28T05:36:19;-6.20;99.90
27224;DHT22;14965;50.660;13.226;2023-02-28T05:38:49;-6.30;99.90
27224;DHT22;14965;50.660;13.226;2023-02-28T05:41:17;-6.30;99.90
27224;DHT22;14965;50.660;13.226;2023-02-28T05:43:46;-6.40;99.90
27224;DHT22;14965;50.660;13.226;2023-02-28T05:46:14;-6.50;99.90
27224;DHT22;14965;50.660;13.226;2023-02-28T05:48:46;-6.60;99.90
27224;DHT22;14965;50.660;13.226;2023-02-28T05:51:14;-6.60;99.90
27224;DHT22;14965;50.660;13.226;2023-02-28T05:53:42;-6.60;99.90
27224;DHT22;14965;50.660;13.226;2023-02-28T05:56:09;-6.60;99.90
27224;DHT22;14965;50.660;13.226;2023-02-28T05:58:36;-6.70;99.90
27224;DHT22;14965;50.660;13.226;2023-02-28T06:01:19;-6.70;99.90
27224;DHT22;14965;50.660;13.226;2023-02-28T06:03:50;-6.70;99.90
27224;DHT22;14965;50.660;13.226;2023-02-28T06:06:20;-6.80;99.90
27224;DHT22;14965;50.660;13.226;2023-02-28T06:22:33;-6.90;99.90
27224;DHT22;14965;50.660;13.226;2023-02-28T06:25:05;-6.90;99.90
27224;DHT22;14965;50.660;13.226;2023-02-28T06:28:02;-6.80;99.90
27224;DHT22;14965;50.660;13.226;2023-02-28T06:30:41;-6.80;99.90
27224;DHT22;14965;50.660;13.226;2023-02-28T06:33:16;-6.80;99.90
27224;DHT22;14965;50.660;13.226;2023-02-28T06:35:51;-6.80;99.90
27224;DHT22;14965;50.660;13.226;2023-02-28T06:38:20;-6.80;99.90
27224;DHT22;14965;50.660;13.226;2023-02-28T06:40:53;-6.70;99.90
27224;DHT22;14965;50.660;13.226;2023-02-28T06:43:24;-6.70;99.90
27224;DHT22;14965;50.660;13.226;2023-02-28T06:45:53;-6.60;99.90
27224;DHT22;14965;50.660;13.226;2023-02-28T06:48:20;-6.60;99.90
27224;DHT22;14965;50.660;13.226;2023-02-28T06:50:49;-6.60;99.90
27224;DHT22;14965;50.660;13.226;2023-02-28T06:53:15;-6.60;99.90
27224;DHT22;14965;50.660;13.226;2023-02-28T06:55:45;-6.60;99.90
27224;DHT22;14965;50.660;13.226;2023-02-28T06:58:11;-6.50;99.90
27224;DHT22;14965;50.660;13.226;2023-02-28T07:00:40;-6.50;99.90
27224;DHT22;14965;50.660;13.226;2023-02-28T07:03:06;-6.40;99.90
27224;DHT22;14965;50.660;13.226;2023-02-28T07:05:34;-6.40;99.90
27224;DHT22;14965;50.660;13.226;2023-02-28T07:08:00;-6.40;99.90
27224;DHT22;14965;50.660;13.226;2023-02-28T07:10:27;-6.40;99.90
27224;DHT22;14965;50.660;13.226;2023-02-28T07:12:53;-6.30;99.90
27224;DHT22;14965;50.660;13.226;2023-02-28T07:15:19;-6.30;99.90
27224;DHT22;14965;50.660;13.226;2023-02-28T07:17:45;-6.10;99.90
27224;DHT22;14965;50.660;13.226;2023-02-28T07:20:12;-6.00;99.90
27224;DHT22;14965;50.660;13.226;2023-02-28T07:22:40;-5.90;99.90
27224;DHT22;14965;50.660;13.226;2023-02-28T07:25:07;-5.80;99.90
27224;DHT22;14965;50.660;13.226;2023-02-28T07:27:35;-5.80;99.90
27224;DHT22;14965;50.660;13.226;2023-02-28T07:30:02;-5.70;99.90
27224;DHT22;14965;50.660;13.226;2023-02-28T07:32:28;-5.60;99.90
27224;DHT22;14965;50.660;13.226;2023-02-28T07:34:54;-5.50;99.90
27224;DHT22;14965;50.660;13.226;2023-02-28T07:37:21;-5.30;99.90
27224;DHT22;14965;50.660;13.226;2023-02-28T07:39:47;-5.10;99.90
27224;DHT22;14965;50.660;13.226;2023-02-28T07:42:13;-5.00;99.90
27224;DHT22;14965;50.660;13.226;2023-02-28T07:44:40;-4.90;99.90
27224;DHT22;14965;50.660;13.226;2023-02-28T07:47:19;-4.70;99.90
27224;DHT22;14965;50.660;13.226;2023-02-28T07:49:45;-4.70;99.90
27224;DHT22;14965;50.660;13.226;2023-02-28T07:52:12;-4.40;99.90
27224;DHT22;14965;50.660;13.226;2023-02-28T07:54:38;-4.30;99.90
27224;DHT22;14965;50.660;13.226;2023-02-28T07:57:04;-4.10;99.90
27224;DHT22;14965;50.660;13.226;2023-02-28T07:59:30;-3.90;99.90
27224;DHT22;14965;50.660;13.226;2023-02-28T08:01:58;-3.80;99.90
27224;DHT22;14965;50.660;13.226;2023-02-28T08:04:24;-3.70;99.90
27224;DHT22;14965;50.660;13.226;2023-02-28T08:06:51;-3.60;99.90
27224;DHT22;14965;50.660;13.226;2023-02-28T08:09:19;-3.50;99.90
27224;DHT22;14965;50.660;13.226;2023-02-28T08:11:47;-3.50;99.90
27224;DHT22;14965;50.660;13.226;2023-02-28T08:17:39;-3.30;99.90
27224;DHT22;14965;50.660;13.226;2023-02-28T08:28:05;-3.20;99.90
27224;DHT22;14965;50.660;13.226;2023-02-28T08:30:32;-3.20;99.90
27224;DHT22;14965;50.660;13.226;2023-02-28T08:33:00;-3.20;99.90
27224;DHT22;14965;50.660;13.226;2023-02-28T08:35:26;-3.10;99.90
27224;DHT22;14965;50.660;13.226;2023-02-28T08:37:53;-3.10;99.90
27224;DHT22;14965;50.660;13.226;2023-02-28T08:40:20;-3.00;99.90
27224;DHT22;14965;50.660;13.226;2023-02-28T08:42:49;-3.00;99.90
27224;DHT22;14965;50.660;13.226;2023-02-28T08:45:16;-2.90;99.90
27224;DHT22;14965;50.660;13.226;2023-02-28T08:56:12;-2.60;99.90
27224;DHT22;14965;50.660;13.226;2023-02-28T10:55:28;0.10;99.90
27224;DHT22;14965;50.660;13.226;2023-02-28T10:57:55;-0.10;99.90
27224;DHT22;14965;50.660;13.226;2023-02-28T11:00:23;0.10;99.90
27224;DHT22;14965;50.660;13.226;2023-02-28T11:02:52;0.30;99.90
27224;DHT22;14965;50.660;13.226;2023-02-28T11:05:27;0.40;99.90
27224;DHT22;14965;50.660;13.226;2023-02-28T11:07:57;0.20;99.90
27224;DHT22;14965;50.660;13.226;2023-02-28T11:10:31;0.20;99.90
27224;DHT22;14965;50.660;13.226;2023-02-28T11:12:58;0.10;99.90
27224;DHT22;14965;50.660;13.226;2023-02-28T11:15:27;0.20;99.90
27224;DHT22;14965;50.660;13.226;2023-02-28T11:36:45;0.00;99.90
27224;DHT22;14965;50.660;13.226;2023-02-28T11:39:12;0.10;99.90
27224;DHT22;14965;50.660;13.226;2023-02-28T11:41:56;0.30;99.90
27224;DHT22;14965;50.660;13.226;2023-02-28T11:44:41;0.50;99.90
27224;DHT22;14965;50.660;13.226;2023-02-28T11:47:19;0.50;99.90
27224;DHT22;14965;50.660;13.226;2023-02-28T11:50:09;0.40;99.90
27224;DHT22;14965;50.660;13.226;2023-02-28T11:52:50;0.50;99.90
27224;DHT22;14965;50.660;13.226;2023-02-28T11:55:23;0.60;99.90
27224;DHT22;14965;50.660;13.226;2023-02-28T12:01:13;0.60;99.90
27224;DHT22;14965;50.660;13.226;2023-02-28T12:09:19;0.90;99.90
27224;DHT22;14965;50.660;13.226;2023-02-28T12:12:02;1.00;99.90
27224;DHT22;14965;50.660;13.226;2023-02-28T12:15:05;0.90;99.90
27224;DHT22;14965;50.660;13.226;2023-02-28T12:18:17;0.80;99.90
27224;DHT22;14965;50.660;13.226;2023-02-28T12:21:03;0.70;99.90
27224;DHT22;14965;50.660;13.226;2023-02-28T12:23:57;0.70;99.90
27224;DHT22;14965;50.660;13.226;2023-02-28T12:26:55;0.60;99.90
27224;DHT22;14965;50.660;13.226;2023-02-28T12:29:34;0.50;99.90
27224;DHT22;14965;50.660;13.226;2023-02-28T12:32:11;0.50;99.90
27224;DHT22;14965;50.660;13.226;2023-02-28T12:34:46;0.60;99.90
27224;DHT22;14965;50.660;13.226;2023-02-28T12:37:19;0.70;99.90
27224;DHT22;14965;50.660;13.226;2023-02-28T12:40:01;0.80;99.90
27224;DHT22;14965;50.660;13.226;2023-02-28T12:42:40;0.50;99.90
27224;DHT22;14965;50.660;13.226;2023-02-28T12:45:15;0.70;99.90
27224;DHT22;14965;50.660;13.226;2023-02-28T12:47:49;0.70;99.90
27224;DHT22;14965;50.660;13.226;2023-02-28T12:50:23;0.60;99.90
27224;DHT22;14965;50.660;13.226;2023-02-28T12:52:58;0.70;99.90
27224;DHT22;14965;50.660;13.226;2023-02-28T12:55:35;0.70;99.90
27224;DHT22;14965;50.660;13.226;2023-02-28T12:58:13;0.70;99.90
27224;DHT22;14965;50.660;13.226;2023-02-28T13:00:58;0.70;99.90
27224;DHT22;14965;50.660;13.226;2023-02-28T13:04:00;0.70;99.90
27224;DHT22;14965;50.660;13.226;2023-02-28T13:07:06;0.70;99.90
27224;DHT22;14965;50.660;13.226;2023-02-28T13:09:53;0.60;99.90
27224;DHT22;14965;50.660;13.226;2023-02-28T13:12:27;0.60;99.90
27224;DHT22;14965;50.660;13.226;2023-02-28T13:15:05;0.60;99.90
27224;DHT22;14965;50.660;13.226;2023-02-28T13:17:35;0.60;99.90
27224;DHT22;14965;50.660;13.226;2023-02-28T13:20:16;0.70;99.90
27224;DHT22;14965;50.660;13.226;2023-02-28T13:22:49;0.60;99.90
27224;DHT22;14965;50.660;13.226;2023-02-28T13:25:50;0.70;99.90
27224;DHT22;14965;50.660;13.226;2023-02-28T13:32:30;0.70;99.90
27224;DHT22;14965;50.660;13.226;2023-02-28T13:35:15;0.80;99.90
27224;DHT22;14965;50.660;13.226;2023-02-28T13:38:17;0.60;99.90
27224;DHT22;14965;50.660;13.226;2023-02-28T13:40:48;0.70;99.90
27224;DHT22;14965;50.660;13.226;2023-02-28T13:43:17;0.60;99.90
27224;DHT22;14965;50.660;13.226;2023-02-28T13:48:46;0.70;99.90
27224;DHT22;14965;50.660;13.226;2023-02-28T13:51:38;0.70;99.90
27224;DHT22;14965;50.660;13.226;2023-02-28T13:54:19;0.50;99.90
27224;DHT22;14965;50.660;13.226;2023-02-28T13:57:04;0.50;99.90
27224;DHT22;14965;50.660;13.226;2023-02-28T13:59:48;0.40;99.90
27224;DHT22;14965;50.660;13.226;2023-02-28T14:02:48;0.40;99.90
27224;DHT22;14965;50.660;13.226;2023-02-28T14:05:27;0.30;99.90
27224;DHT22;14965;50.660;13.226;2023-02-28T14:07:57;0.30;99.90
27224;DHT22;14965;50.660;13.226;2023-02-28T14:10:28;0.20;99.90
27224;DHT22;14965;50.660;13.226;2023-02-28T14:12:59;0.20;99.90
27224;DHT22;14965;50.660;13.226;2023-02-28T14:15:55;0.30;99.90
27224;DHT22;14965;50.660;13.226;2023-02-28T14:18:28;0.30;99.90
27224;DHT22;14965;50.660;13.226;2023-02-28T14:21:12;0.30;99.90
27224;DHT22;14965;50.660;13.226;2023-02-28T14:24:19;0.40;99.90
27224;DHT22;14965;50.660;13.226;2023-02-28T14:27:48;0.30;99.90
27224;DHT22;14965;50.660;13.226;2023-02-28T14:30:40;0.40;99.90
27224;DHT22;14965;50.660;13.226;2023-02-28T14:33:25;0.30;99.90
27224;DHT22;14965;50.660;13.226;2023-02-28T14:36:47;0.30;99.90
27224;DHT22;14965;50.660;13.226;2023-02-28T14:40:16;0.20;99.90
27224;DHT22;14965;50.660;13.226;2023-02-28T14:43:16;0.30;99.90
27224;DHT22;14965;50.660;13.226;2023-02-28T14:45:55;0.30;99.90
27224;DHT22;14965;50.660;13.226;2023-02-28T14:48:55;0.10;99.90
27224;DHT22;14965;50.660;13.226;2023-02-28T14:51:36;0.00;99.90
27224;DHT22;14965;50.660;13.226;2023-02-28T14:54:24;0.00;99.90
27224;DHT22;14965;50.660;13.226;2023-02-28T15:40:51;0.10;99.90
27224;DHT22;14965;50.660;13.226;2023-02-28T15:44:25;0.10;99.90
27224;DHT22;14965;50.660;13.226;2023-02-28T15:47:34;0.10;99.90
27224;DHT22;14965;50.660;13.226;2023-02-28T15:50:55;0.10;99.90
27224;DHT22;14965;50.660;13.226;2023-02-28T15:57:45;-0.10;99.90
27224;DHT22;14965;50.660;13.226;2023-02-28T16:36:13;-0.70;99.90
27224;DHT22;14965;50.660;13.226;2023-02-28T16:38:42;-0.90;99.90
27224;DHT22;14965;50.660;13.226;2023-02-28T16:41:12;-0.80;99.90
27224;DHT22;14965;50.660;13.226;2023-02-28T16:43:45;-1.00;99.90
27224;DHT22;14965;50.660;13.226;2023-02-28T16:46:15;-1.00;99.90
27224;DHT22;14965;50.660;13.226;2023-02-28T16:51:26;-1.10;99.90
27224;DHT22;14965;50.660;13.226;2023-02-28T16:53:53;-1.20;99.90
27224;DHT22;14965;50.660;13.226;2023-02-28T16:56:22;-1.30;99.90
27224;DHT22;14965;50.660;13.226;2023-02-28T16:58:59;-1.30;99.90
27224;DHT22;14965;50.660;13.226;2023-02-28T17:01:27;-1.30;99.90
27224;DHT22;14965;50.660;13.226;2023-02-28T17:03:54;-1.40;99.90
27224;DHT22;14965;50.660;13.226;2023-02-28T17:06:23;-1.40;99.90
27224;DHT22;14965;50.660;13.226;2023-02-28T17:08:54;-1.40;99.90
27224;DHT22;14965;50.660;13.226;2023-02-28T17:11:21;-1.50;99.90
27224;DHT22;14965;50.660;13.226;2023-02-28T17:13:48;-1.50;99.90
27224;DHT22;14965;50.660;13.226;2023-02-28T17:16:22;-1.50;99.90
27224;DHT22;14965;50.660;13.226;2023-02-28T17:18:58;-1.60;99.90
27224;DHT22;14965;50.660;13.226;2023-02-28T17:21:28;-1.60;99.90
27224;DHT22;14965;50.660;13.226;2023-02-28T17:23:58;-1.60;99.90
27224;DHT22;14965;50.660;13.226;2023-02-28T17:46:36;-1.90;99.90
27224;DHT22;14965;50.660;13.226;2023-02-28T17:49:44;-1.90;99.90
27224;DHT22;14965;50.660;13.226;2023-02-28T17:52:28;-1.90;99.90
27224;DHT22;14965;50.660;13.226;2023-02-28T17:55:03;-1.90;99.90
27224;DHT22;14965;50.660;13.226;2023-02-28T17:57:30;-2.00;99.90
27224;DHT22;14965;50.660;13.226;2023-02-28T18:00:03;-2.00;99.90
27224;DHT22;14965;50.660;13.226;2023-02-28T18:02:30;-2.00;99.90
27224;DHT22;14965;50.660;13.226;2023-02-28T18:04:56;-2.00;99.90
27224;DHT22;14965;50.660;13.226;2023-02-28T18:07:23;-2.10;99.90
27224;DHT22;14965;50.660;13.226;2023-02-28T18:09:50;-1.90;99.90
27224;DHT22;14965;50.660;13.226;2023-02-28T18:12:28;-2.00;99.90
27224;DHT22;14965;50.660;13.226;2023-02-28T18:15:03;-2.00;99.90
27224;DHT22;14965;50.660;13.226;2023-02-28T18:17:37;-2.00;99.90
27224;DHT22;14965;50.660;13.226;2023-02-28T18:21:02;-2.10;99.90
27224;DHT22;14965;50.660;13.226;2023-02-28T18:24:07;-2.10;99.90
27224;DHT22;14965;50.660;13.226;2023-02-28T18:27:11;-2.10;99.90
27224;DHT22;14965;50.660;13.226;2023-02-28T18:29:54;-2.10;99.90
27224;DHT22;14965;50.660;13.226;2023-02-28T18:32:31;-2.10;99.90
27224;DHT22;14965;50.660;13.226;2023-02-28T18:35:29;-2.20;99.90
27224;DHT22;14965;50.660;13.226;2023-02-28T18:42:06;-2.30;99.90
27224;DHT22;14965;50.660;13.226;2023-02-28T19:20:28;-2.80;99.90
27224;DHT22;14965;50.660;13.226;2023-02-28T19:34:18;-3.20;99.90
27224;DHT22;14965;50.660;13.226;2023-02-28T19:37:01;-3.20;99.90
27224;DHT22;14965;50.660;13.226;2023-02-28T19:39:34;-3.40;99.90
27224;DHT22;14965;50.660;13.226;2023-02-28T19:42:19;-3.60;99.90
27224;DHT22;14965;50.660;13.226;2023-02-28T19:45:24;-3.70;99.90
27224;DHT22;14965;50.660;13.226;2023-02-28T19:48:26;-3.80;99.90
27224;DHT22;14965;50.660;13.226;2023-02-28T19:51:13;-3.70;99.90
27224;DHT22;14965;50.660;13.226;2023-02-28T19:57:29;-3.80;99.90
27224;DHT22;14965;50.660;13.226;2023-02-28T20:00:57;-3.80;99.90
27224;DHT22;14965;50.660;13.226;2023-02-28T20:03:51;-3.80;99.90
27224;DHT22;14965;50.660;13.226;2023-02-28T20:06:55;-3.90;99.90
27224;DHT22;14965;50.660;13.226;2023-02-28T20:09:47;-4.00;99.90
27224;DHT22;14965;50.660;13.226;2023-02-28T20:12:25;-4.00;99.90
27224;DHT22;14965;50.660;13.226;2023-02-28T20:15:18;-4.10;99.90
27224;DHT22;14965;50.660;13.226;2023-02-28T20:17:52;-4.10;99.90
27224;DHT22;14965;50.660;13.226;2023-02-28T20:20:25;-4.20;99.90
27224;DHT22;14965;50.660;13.226;2023-02-28T20:23:12;-4.20;99.90
27224;DHT22;14965;50.660;13.226;2023-02-28T20:26:05;-4.30;99.90
27224;DHT22;14965;50.660;13.226;2023-02-28T20:28:48;-4.20;99.90
27224;DHT22;14965;50.660;13.226;2023-02-28T20:31:29;-4.30;99.90
27224;DHT22;14965;50.660;13.226;2023-02-28T20:34:04;-4.30;99.90
27224;DHT22;14965;50.660;13.226;2023-02-28T20:36:44;-4.30;99.90
27224;DHT22;14965;50.660;13.226;2023-02-28T20:39:24;-4.30;99.90
27224;DHT22;14965;50.660;13.226;2023-02-28T20:42:31;-4.30;99.90
27224;DHT22;14965;50.660;13.226;2023-02-28T20:45:12;-4.30;99.90
27224;DHT22;14965;50.660;13.226;2023-02-28T20:47:45;-4.40;99.90
27224;DHT22;14965;50.660;13.226;2023-02-28T20:50:24;-4.40;99.90
27224;DHT22;14965;50.660;13.226;2023-02-28T20:52:59;-4.40;99.90
27224;DHT22;14965;50.660;13.226;2023-02-28T20:55:34;-4.50;99.90
27224;DHT22;14965;50.660;13.226;2023-02-28T20:58:13;-4.50;99.90
27224;DHT22;14965;50.660;13.226;2023-02-28T21:00:47;-4.60;99.90
27224;DHT22;14965;50.660;13.226;2023-02-28T21:03:26;-4.70;99.90
27224;DHT22;14965;50.660;13.226;2023-02-28T21:06:00;-4.70;99.90
27224;DHT22;14965;50.660;13.226;2023-02-28T21:08:28;-4.70;99.90
27224;DHT22;14965;50.660;13.226;2023-02-28T21:11:00;-4.80;99.90
27224;DHT22;14965;50.660;13.226;2023-02-28T21:13:35;-4.80;99.90
27224;DHT22;14965;50.660;13.226;2023-02-28T21:16:07;-4.80;99.90
27224;DHT22;14965;50.660;13.226;2023-02-28T21:18:46;-4.80;99.90
27224;DHT22;14965;50.660;13.226;2023-02-28T21:25:57;-4.90;99.90
27224;DHT22;14965;50.660;13.226;2023-02-28T21:29:00;-4.90;99.90
27224;DHT22;14965;50.660;13.226;2023-02-28T22:17:48;-6.00;99.90
27224;DHT22;14965;50.660;13.226;2023-02-28T22:21:03;-5.90;99.90
27224;DHT22;14965;50.660;13.226;2023-02-28T22:24:22;-5.80;99.90
27224;DHT22;14965;50.660;13.226;2023-02-28T22:27:54;-5.80;99.90
27224;DHT22;14965;50.660;13.226;2023-02-28T22:34:56;-5.90;99.90
27224;DHT22;14965;50.660;13.226;2023-02-28T22:37:52;-5.90;99.90
27224;DHT22;14965;50.660;13.226;2023-02-28T22:40:56;-6.00;99.90
27224;DHT22;14965;50.660;13.226;2023-02-28T22:44:23;-6.10;99.90
27224;DHT22;14965;50.660;13.226;2023-02-28T22:54:08;-6.20;99.90
27224;DHT22;14965;50.660;13.226;2023-02-28T22:56:55;-6.10;99.90
27224;DHT22;14965;50.660;13.226;2023-02-28T22:59:56;-6.10;99.90
27224;DHT22;14965;50.660;13.226;2023-02-28T23:02:47;-6.10;99.90
27224;DHT22;14965;50.660;13.226;2023-02-28T23:13:56;-6.20;99.90
27224;DHT22;14965;50.660;13.226;2023-02-28T23:21:28;-6.30;99.90
27224;DHT22;14965;50.660;13.226;2023-02-28T23:24:47;-6.30;99.90
27224;DHT22;14965;50.660;13.226;2023-02-28T23:28:24;-6.30;99.90
27224;DHT22;14965;50.660;13.226;2023-02-28T23:32:43;-6.30;99.90
